CW0565 Weather Reports


Display with metric or nautical units.
time (UTC)temp
F
wind
direction
speed
MPH
gust
MPH
rain 1hr
in
rain 24hr
in
rain mn
in
humidity
%
barometer
mb
20210615041520 50 184 3.0 7.0 0.00 0.84 0.00 76 1014.5
20210615040502 50 186 4.0 7.0 0.00 0.84 0.00 77 1014.4
20210615035511 50 186 5.0 7.0 0.00 0.84 0.00 77 1014.3
20210615035014 50 186 4.0 7.0 0.00 0.84 0.00 77 1014.3
20210615034003 50 187 3.0 6.0 0.00 0.84 0.00 77 1014.3
20210615033507 50 184 5.0 6.0 0.00 0.84 0.00 77 1014.2
20210615031533 50 205 2.0 10.0 0.00 0.84 0.00 75 1013.9
20210615031002 50 198 4.0 12.0 0.00 0.84 0.00 74 1013.8
20210615025006 49 193 6.0 9.0 0.00 0.84 0.00 78 1013.7
20210615024007 50 213 3.0 10.0 0.00 0.84 0.00 75 1013.6
20210615023505 50 222 5.0 10.0 0.00 0.84 0.00 75 1013.7
20210615023020 50 194 5.0 11.0 0.00 0.84 0.00 75 1013.6
20210615021506 50 208 4.0 11.0 0.00 0.84 0.00 75 1013.6
20210615021005 50 205 6.0 11.0 0.00 0.84 0.00 76 1013.4
20210615020009 50 225 4.0 8.0 0.00 0.84 0.00 78 1013.3
20210615015502 50 210 4.0 8.0 0.00 0.84 0.00 78 1013.2
20210615015005 50 205 4.0 11.0 0.00 0.84 0.00 79 1013.2
20210615014009 50 228 4.0 13.0 0.00 0.84 0.00 78 1013.3
20210615013003 49 234 3.0 10.0 0.00 0.84 0.00 80 1013.4
20210615012009 50 232 3.0 10.0 0.00 0.84 0.00 79 1013.1
20210615011512 50 241 3.0 9.0 0.00 0.84 0.00 79 1013.4
20210615011008 50 244 4.0 10.0 0.00 0.84 0.00 79 1013.3
20210615010503 50 221 4.0 10.0 0.00 0.84 0.00 79 1013.3
20210615005508 50 208 4.0 7.0 0.00 0.84 0.00 78 1013.3
20210615003503 50 204 1.0 7.0 0.00 0.84 0.00 78 1013.2
20210615002502 50 215 2.0 8.0 0.00 0.84 0.00 78 1013.2
20210615001002 50 216 1.0 7.0 0.00 0.84 0.00 77 1013.2
20210615000012 50 217 3.0 8.0 0.00 0.84 0.00 76 1013.1
20210614235002 50 243 4.0 10.0 0.00 0.84 0.00 76 1013.2
20210614234503 50 220 1.0 7.0 0.00 0.84 0.00 76 1013.3
20210614233507 51 225 0.0 6.0 0.00 0.84 0.00 76 1013.2
20210614233010 51 224 0.0 7.0 0.00 0.84 0.00 76 1013.3
20210614231518 51 189 5.0 10.0 0.00 0.84 0.00 75 1013.1
20210614231008 51 222 4.0 10.0 0.00 0.84 0.00 74 1013.2
20210614224024 51 213 3.0 13.0 0.00 0.84 0.00 73 1013.1
20210614223502 51 259 7.0 13.0 0.00 0.84 0.00 73 1013.1
20210614222003 51 254 4.0 14.0 0.00 0.84 0.00 72 1013.0
20210614221006 51 249 8.0 14.0 0.00 0.84 0.00 72 1013.1
20210614215513 51 271 6.0 13.0 0.00 0.84 0.84 72 1012.9
20210614215005 51 266 4.0 13.0 0.00 0.84 0.84 72 1012.9
20210614214007 51 248 6.0 13.0 0.00 0.84 0.84 71 1012.9
20210614213503 51 249 5.0 13.0 0.00 0.84 0.84 70 1012.9
20210614212002 52 277 4.0 12.0 0.00 0.84 0.84 69 1012.9
20210614211502 52 215 4.0 14.0 0.00 0.84 0.84 68 1012.8
20210614210012 52 253 5.0 10.0 0.00 0.84 0.84 68 1012.8
20210614205016 52 213 5.0 15.0 0.00 0.84 0.84 67 1012.7
20210614204025 52 229 6.0 14.0 0.00 0.84 0.84 66 1012.6
20210614203518 52 210 5.0 14.0 0.00 0.84 0.84 66 1012.6
20210614202024 53 256 6.0 18.0 0.00 0.84 0.84 65 1012.4
20210614201525 53 282 9.0 18.0 0.00 0.84 0.84 64 1012.3
20210614200536 53 246 7.0 18.0 0.00 0.84 0.84 63 1012.0
20210614195516 53 261 10.0 22.0 0.00 0.84 0.84 62 1011.9
20210614195016 54 261 7.0 19.0 0.00 0.84 0.84 62 1011.9
20210614194034 54 220 7.0 16.0 0.00 0.84 0.84 61 1011.7
20210614193519 54 268 6.0 17.0 0.00 0.84 0.84 62 1011.7
20210614193046 54 284 6.0 17.0 0.00 0.84 0.84 61 1011.6
20210614192016 54 341 8.0 20.0 0.00 0.84 0.84 60 1011.5
20210614190516 55 276 11.0 23.0 0.00 0.84 0.84 60 1011.2
20210614185023 55 257 9.0 25.0 0.00 0.84 0.84 61 1011.1
20210614184015 56 327 10.0 24.0 0.00 0.84 0.84 60 1011.1
20210614183022 56 302 6.0 16.0 0.00 0.84 0.84 61 1011.1
20210614182520 56 242 10.0 16.0 0.00 0.84 0.84 59 1011.0
20210614181516 57 272 11.0 26.0 0.01 0.84 0.84 56 1010.9
20210614180516 58 290 8.0 20.0 0.01 0.84 0.84 54 1010.9
20210614180022 58 292 11.0 20.0 0.01 0.84 0.84 53 1010.8
20210614175016 58 254 11.0 25.0 0.01 0.84 0.84 51 1010.8
20210614174017 59 268 9.0 19.0 0.01 0.84 0.84 51 1010.6
20210614173541 59 286 5.0 19.0 0.01 0.84 0.84 50 1010.5
20210614173023 59 316 8.0 20.0 0.01 0.84 0.84 51 1010.5
20210614171558 59 327 15.0 25.0 0.00 0.83 0.83 47 1010.4
20210614170037 60 306 11.0 22.0 0.00 0.83 0.83 45 1010.2
20210614165016 61 22 7.0 18.0 0.00 0.83 0.83 47 1010.3
20210614164026 61 252 10.0 20.0 0.00 0.83 0.83 47 1010.2
20210614163030 61 275 7.0 17.0 0.00 0.83 0.83 47 1009.9
20210614162016 61 274 10.0 20.0 0.00 0.83 0.83 47 1009.8
20210614161038 61 294 12.0 24.0 0.00 0.83 0.83 50 1009.7
20210614160521 61 302 13.0 25.0 0.00 0.83 0.83 51 1009.5
20210614155516 61 308 8.0 25.0 0.00 0.83 0.83 54 1009.5
20210614154022 63 285 2.0 13.0 0.00 0.83 0.83 54 1009.2
20210614153100 63 269 10.0 21.0 0.00 0.83 0.83 52 1009.1
20210614152519 63 298 7.0 17.0 0.00 0.83 0.83 54 1008.9
20210614151522 63 271 11.0 25.0 0.00 0.83 0.83 53 1008.7
20210614151020 63 276 11.0 26.0 0.00 0.83 0.83 55 1008.6
20210614150048 64 292 11.0 23.0 0.00 0.83 0.83 56 1008.6
20210614144548 63 264 11.0 25.0 0.00 0.83 0.83 56 1008.4
20210614144016 64 267 10.0 22.0 0.00 0.83 0.83 57 1008.4
20210614143515 63 248 9.0 18.0 0.00 0.83 0.83 58 1008.4
20210614142016 62 288 9.0 29.0 0.00 0.83 0.83 61 1008.5
20210614141521 62 303 12.0 25.0 0.00 0.83 0.83 62 1008.5
20210614140515 62 248 12.0 24.0 0.00 0.83 0.83 65 1008.4
20210614135523 62 319 9.0 17.0 0.00 0.83 0.83 69 1008.1
20210614134540 62 302 10.0 18.0 0.00 0.83 0.83 68 1008.1
20210614133517 62 244 7.0 17.0 0.00 0.83 0.83 75 1008.0
20210614132518 61 254 12.0 21.0 0.00 0.83 0.83 78 1007.9
20210614131015 59 242 7.0 22.0 0.00 0.83 0.83 85 1007.9
20210614130029 59 237 9.0 17.0 0.00 0.83 0.83 87 1008.0
20210614125517 59 231 8.0 17.0 0.00 0.83 0.83 87 1007.8
20210614125015 58 209 9.0 19.0 0.00 0.83 0.83 89 1007.7
20210614123049 57 265 10.0 27.0 0.00 0.83 0.83 93 1007.9
20210614122015 57 226 9.0 21.0 0.01 0.83 0.83 96 1007.9
20210614121017 57 198 12.0 23.0 0.01 0.83 0.83 97 1007.9
20210614120024 57 208 8.0 18.0 0.02 0.83 0.83 98 1007.7
20210614115015 56 197 8.0 16.0 0.02 0.83 0.83 100 1007.7
20210614114016 56 213 8.0 13.0 0.02 0.83 0.83 100 1007.8
20210614113525 56 184 4.0 18.0 0.02 0.83 0.83 100 1008.1
20210614112515 55 220 11.0 24.0 0.03 0.83 0.83 100 1008.2
20210614111516 55 179 7.0 10.0 0.06 0.83 0.83 100 1008.3
20210614111023 55 184 7.0 11.0 0.06 0.83 0.83 100 1008.2
20210614110515 55 182 7.0 12.0 0.07 0.82 0.82 100 1008.1
20210614110018 55 172 6.0 15.0 0.09 0.82 0.82 100 1008.1
20210614105531 55 167 6.0 15.0 0.11 0.82 0.82 100 1008.5
20210614105016 55 186 10.0 16.0 0.13 0.82 0.82 100 1008.5
20210614104015 55 198 8.0 18.0 0.19 0.82 0.82 100 1008.6
20210614103514 55 171 10.0 17.0 0.20 0.81 0.81 100 1008.3
20210614102021 55 189 8.0 12.0 0.28 0.79 0.79 100 1009.0
20210614101026 55 144 6.0 14.0 0.34 0.76 0.76 100 1008.9
20210614100019 55 173 7.0 14.0 0.36 0.72 0.72 100 1009.8
20210614095535 54 193 10.0 13.0 0.39 0.71 0.71 100 1010.1
20210614095015 55 159 6.0 15.0 0.39 0.69 0.69 100 1010.0
20210614094519 55 192 6.0 15.0 0.38 0.65 0.65 100 1010.0
20210614092514 55 186 7.0 11.0 0.31 0.54 0.54 100 1010.7
20210614091530 55 169 9.0 15.0 0.25 0.46 0.46 100 1010.6
20210614090515 55 173 8.0 12.0 0.20 0.39 0.39 100 1010.8
20210614084525 55 170 4.0 8.0 0.16 0.27 0.27 100 1010.6
20210614084021 55 172 5.0 7.0 0.17 0.24 0.24 100 1010.8
20210614083036 55 165 6.0 9.0 0.20 0.23 0.23 100 1010.6
20210614082015 55 168 5.0 8.0 0.20 0.22 0.22 100 1011.0
20210614081554 56 161 5.0 9.0 0.19 0.21 0.21 100 1011.1
20210614081021 56 187 2.0 9.0 0.17 0.20 0.20 100 1011.3
20210614080533 56 187 5.0 9.0 0.17 0.19 0.19 100 1011.3
20210614080021 56 177 3.0 12.0 0.15 0.17 0.17 100 1011.3
20210614075520 56 184 8.0 11.0 0.14 0.17 0.17 100 1011.7
20210614074528 56 168 6.0 7.0 0.09 0.11 0.11 100 1011.5
20210614073515 56 179 5.0 8.0 0.02 0.04 0.04 100 1011.6
20210614072521 56 186 5.0 9.0 0.01 0.02 0.02 100 1011.8
20210614071529 56 159 7.0 10.0 0.02 0.02 0.02 98 1011.9
20210614070038 56 177 6.0 10.0 0.02 0.02 0.02 98 1012.0
20210614065521 56 178 5.0 10.0 0.02 0.02 0.02 97 1012.2
20210614064548 56 167 7.0 10.0 0.01 0.02 0.02 97 1012.3
20210614063515 56 180 3.0 6.0 0.01 0.02 0.02 96 1012.5
20210614063035 56 195 2.0 4.0 0.01 0.02 0.02 96 1012.6
20210614062526 56 196 1.0 6.0 0.01 0.02 0.02 96 1012.6
20210614061609 56 211 4.0 9.0 0.00 0.01 0.01 96 1012.8
20210614060515 56 251 3.0 10.0 0.00 0.01 0.01 95 1012.8
20210614055515 56 209 5.0 11.0 0.00 0.01 0.01 95 1012.9
20210614054549 56 198 6.0 10.0 0.00 0.01 0.01 95 1013.0
20210614053514 56 234 6.0 15.0 0.00 0.01 0.01 95 1013.1
20210614052515 56 206 7.0 15.0 0.00 0.01 0.01 95 1013.4
20210614051525 56 196 8.0 19.0 0.01 0.01 0.01 95 1013.5
20210614050528 56 192 9.0 14.0 0.01 0.01 0.01 96 1013.7
20210614050041 55 228 8.0 14.0 0.01 0.01 0.01 96 1013.9
20210614045528 55 194 2.0 9.0 0.01 0.01 0.01 96 1014.0
20210614045021 55 171 4.0 8.0 0.01 0.01 0.01 96 1014.0
20210614043040 55 192 2.0 6.0 0.01 0.01 0.01 95 1013.9
20210614042516 55 171 2.0 7.0 0.00 0.00 0.00 95 1013.8